Latest Weather Observations for Cape Flattery

IDQ60801

Issued at 9:51 pm EST Thursday 17 January 2019 (issued every 10 minutes, with the page automatically refreshed every 10 minutes)

About weather observations | Map of weather stations | Latest weather observations for QLD | Other Formats
Station Details ID: 031213 Name: CAPE FLATTERY Lat: -14.97 Lon: 145.31 Height: 18.5 m
Data from the previous 72 hours. | See also: Recent months at Cape Flattery
Date/Time
EST
Temp
°C
App
Temp
°C
Dew
Point
°C
Rel
Hum
%
Delta-T
°C
Wind Press
QNH
hPa
Press
MSL
hPa
Rain since
9am
mm
Dir  Spd
km/h
Gust
km/h
Spd
kts
Gust
kts
17/09:30pm 28.1 28.3 22.8 73 3.6 SE 26 35 14 19 1009.7 1009.6 0.0
17/09:00pm 28.2 28.6 23.1 74 3.5 SE 26 37 14 20 1009.5 1009.4 0.0
17/08:30pm 28.1 28.4 23.0 74 3.5 SE 26 39 14 21 1009.2 1009.1 0.0
17/08:00pm 28.1 28.1 23.0 74 3.5 SE 28 35 15 19 1008.9 1008.8 0.0
17/07:30pm 28.1 28.4 22.3 70 3.9 SE 24 32 13 17 1008.7 1008.6 0.0
17/07:00pm 27.9 27.9 22.4 72 3.7 SE 26 35 14 19 1008.4 1008.3 0.0
17/06:30pm 28.2 27.7 22.2 70 4.0 SE 28 37 15 20 1007.9 1007.8 0.0
17/06:00pm 28.7 27.9 21.7 66 4.7 SE 28 39 15 21 1007.4 1007.3 0.0
17/05:30pm 29.3 28.3 22.0 64 4.9 SSE 30 39 16 21 1007.0 1006.9 0.0
17/05:00pm 29.3 28.6 22.5 67 4.6 SE 30 37 16 20 1006.6 1006.5 0.0
17/04:30pm 29.6 29.3 22.6 66 4.8 SE 28 37 15 20 1006.4 1006.3 0.0
17/04:00pm 30.8 31.0 23.5 65 5.1 SE 28 37 15 20 1006.5 1006.4 0.0
17/03:30pm 30.5 30.4 22.9 64 5.2 SE 28 37 15 20 1006.6 1006.5 0.0
17/03:00pm 29.6 30.2 22.8 67 4.7 SE 24 35 13 19 1007.2 1007.1 0.0
17/02:30pm 28.0 29.0 22.9 74 3.5 SE 22 33 12 18 1007.5 1007.4 0.0
17/02:00pm 29.9 29.6 22.6 65 5.0 SSE 28 35 15 19 1007.6 1007.5 0.0
17/01:30pm 31.2 30.7 22.8 61 5.8 SE 30 37 16 20 1007.7 1007.6 0.0
17/01:00pm 30.8 29.9 22.9 62 5.4 SE 32 41 17 22 1007.8 1007.7 0.0
17/12:30pm 31.3 31.1 23.4 63 5.5 SE 30 39 16 21 1008.5 1008.4 0.0
17/12:00pm 30.6 31.1 23.3 65 5.0 SE 26 35 14 19 1008.9 1008.8 0.0
17/11:30am 30.6 30.4 22.7 62 5.4 SE 28 35 15 19 1009.7 1009.6 0.0
17/11:00am 30.9 31.2 23.0 62 5.4 SE 26 33 14 18 1010.2 1010.1 0.0
17/10:30am 30.7 30.5 22.8 62 5.4 SE 28 35 15 19 1010.6 1010.5 0.0
17/10:00am 30.4 30.7 22.3 62 5.5 SE 24 33 13 18 1010.7 1010.6 0.0
17/09:30am 30.0 29.7 21.9 62 5.5 SE 26 35 14 19 1010.9 1010.8 0.0
17/09:00am 29.8 29.4 21.7 61 5.5 SE 26 33 14 18 1010.7 1010.6 0.0
17/08:30am 29.5 29.4 22.2 65 4.9 SE 26 35 14 19 1010.3 1010.2 0.0
17/08:00am 28.9 28.8 22.2 67 4.5 SE 26 37 14 20 1009.9 1009.8 0.0
17/07:30am 28.6 28.1 22.1 68 4.4 SE 28 39 15 21 1009.6 1009.5 0.0
17/07:00am 28.0 28.7 22.2 70 3.9 SE 22 32 12 17 1009.6 1009.5 0.0
17/06:30am 27.4 27.8 22.4 74 3.4 SE 24 33 13 18 1009.3 1009.2 0.0
17/06:00am 27.1 26.3 21.6 72 3.7 SE 28 37 15 20 1008.7 1008.6 0.0
17/05:30am 27.1 26.6 22.1 74 3.4 SE 28 37 15 20 1008.1 1008.0 0.0
17/05:00am 27.1 26.8 21.8 73 3.6 SE 26 41 14 22 1007.8 1007.7 0.0
17/04:30am 27.2 27.7 22.6 76 3.1 SE 24 33 13 18 1007.6 1007.5 0.0
17/04:00am 27.2 27.0 22.8 77 3.0 SE 28 37 15 20 1007.5 1007.4 0.0
17/03:30am 27.1 27.6 22.7 77 3.0 SE 24 33 13 18 1007.6 1007.5 0.0
17/03:00am 27.2 27.3 22.6 76 3.1 SE 26 37 14 20 1007.8 1007.7 0.0
17/02:30am 27.1 27.5 22.5 76 3.1 SE 24 35 13 19 1008.2 1008.1 0.0
17/02:00am 27.3 27.1 22.7 76 3.1 SE 28 39 15 21 1008.5 1008.4 0.0
17/01:30am 27.4 26.6 22.4 74 3.4 SE 30 35 16 19 1008.8 1008.7 0.0
17/01:00am 27.4 28.0 22.8 76 3.1 SE 24 35 13 19 1009.1 1009.0 0.0
17/12:30am 27.4 27.1 21.9 72 3.7 SE 26 37 14 20 1009.4 1009.3 0.0
17/12:00am 27.4 27.8 22.4 74 3.4 SE 24 39 13 21 1009.7 1009.6 0.0
 
Date/Time
EST
Temp
°C
App
Temp
°C
Dew
Point
°C
Rel
Hum
%
Delta-T
°C
Wind Press
QNH
hPa
Press
MSL
hPa
Rain since
9am
mm
Dir  Spd
km/h
Gust
km/h
Spd
kts
Gust
kts
16/11:30pm 27.6 27.3 22.5 74 3.5 SE 28 39 15 21 1009.9 1009.8 0.0
16/11:00pm 27.7 27.2 22.9 75 3.3 SE 30 43 16 23 1010.1 1010.0 0.0
16/10:30pm 27.9 28.1 22.8 74 3.5 SE 26 39 14 21 1010.0 1009.9 0.0
16/10:00pm 27.8 27.9 22.5 73 3.6 SE 26 41 14 22 1009.8 1009.7 0.0
16/09:30pm 28.0 28.1 23.2 75 3.3 SE 28 41 15 22 1009.6 1009.5 0.0
16/09:00pm 27.9 27.7 22.8 74 3.5 SE 28 39 15 21 1009.3 1009.2 0.0
16/08:30pm 27.9 28.8 23.3 76 3.1 SE 24 39 13 21 1009.0 1008.9 0.0
16/08:00pm 27.9 27.9 22.4 72 3.7 SE 26 35 14 19 1009.0 1008.9 0.0
16/07:30pm 27.9 27.6 22.6 73 3.6 SE 28 39 15 21 1008.7 1008.6 0.0
16/07:00pm 28.1 27.3 22.3 70 3.9 SE 30 41 16 22 1008.4 1008.3 0.0
16/06:30pm 28.6 28.1 22.8 71 4.0 SE 30 39 16 21 1008.2 1008.1 0.0
16/06:00pm 29.0 28.2 23.0 70 4.1 SE 32 41 17 22 1007.9 1007.8 0.0
16/05:30pm 29.3 29.5 23.5 71 4.0 SE 28 37 15 20 1007.4 1007.3 0.0
16/05:00pm 29.8 29.3 22.8 66 4.8 SE 30 41 16 22 1007.2 1007.1 0.0
16/04:30pm 29.9 29.4 23.6 69 4.3 SE 32 43 17 23 1007.3 1007.2 0.0
16/04:00pm 30.5 29.7 23.4 66 4.9 SE 33 46 18 25 1007.2 1007.1 0.0
16/03:30pm 30.4 29.2 22.6 63 5.3 SE 33 44 18 24 1007.4 1007.3 0.0
16/03:00pm 30.1 29.6 23.5 67 4.6 SE 32 39 17 21 1007.4 1007.3 0.0
16/02:30pm 30.8 30.4 23.7 66 4.9 SE 32 43 17 23 1007.6 1007.5 0.0
16/02:00pm 30.4 30.9 23.3 66 4.9 SE 26 37 14 20 1007.9 1007.8 0.0
16/01:30pm 31.0 30.9 23.6 64 5.1 SE 30 39 16 21 1008.4 1008.3 0.0
16/01:00pm 31.2 31.2 23.8 64 5.1 SE 30 39 16 21 1008.6 1008.5 0.0
16/12:30pm 31.2 30.9 23.3 63 5.4 SE 30 41 16 22 1008.8 1008.7 0.0
16/12:00pm 30.8 30.4 23.7 66 4.9 SE 32 43 17 23 1008.8 1008.7 0.0
16/11:30am 31.7 31.6 24.3 65 5.2 SE 32 41 17 22 1009.2 1009.1 0.0
16/11:00am 30.9 30.3 23.3 64 5.2 SE 32 41 17 22 1009.4 1009.3 0.0
16/10:30am 30.4 30.3 23.6 67 4.7 SE 30 41 16 22 1009.7 1009.6 0.0
16/10:00am 29.2 29.7 23.9 73 3.7 SE 28 37 15 20 1009.8 1009.7 0.0
16/09:30am 29.4 30.3 24.0 72 3.7 SE 26 37 14 20 1010.2 1010.1 0.0
16/09:00am 29.6 30.1 24.0 72 3.9 SE 28 39 15 21 1010.1 1010.0 8.2
16/08:30am 28.5 29.4 23.4 74 3.5 SE 24 35 13 19 1010.1 1010.0 8.2
16/08:00am 28.3 28.4 23.2 74 3.5 SE 28 35 15 19 1009.7 1009.6 8.2
16/07:30am 28.3 28.7 23.2 74 3.5 SE 26 39 14 21 1009.7 1009.6 8.2
16/07:00am 27.6 27.3 23.2 77 3.0 SE 30 43 16 23 1009.3 1009.2 8.2
16/06:30am 27.2 27.5 23.0 78 2.9 SE 26 35 14 19 1008.9 1008.8 8.2
16/06:00am 27.2 27.6 23.2 79 2.7 SE 26 35 14 19 1008.8 1008.7 8.2
16/05:30am 27.1 26.6 22.9 78 2.9 SE 30 41 16 22 1008.4 1008.3 8.2
16/05:00am 27.1 27.1 23.1 79 2.7 SE 28 41 15 22 1007.9 1007.8 8.2
16/04:30am 27.0 26.7 22.6 77 3.0 SE 28 37 15 20 1007.4 1007.3 8.2
16/04:00am 27.1 27.9 23.1 79 2.7 SE 24 35 13 19 1007.3 1007.2 8.2
16/03:30am 27.2 26.4 22.4 75 3.2 SE 30 43 16 23 1007.3 1007.2 8.2
16/03:00am 27.1 26.9 22.7 77 3.0 SE 28 39 15 21 1007.3 1007.2 8.2
16/02:30am 27.3 27.2 22.9 77 3.0 SE 28 39 15 21 1007.9 1007.8 8.2
16/02:00am 27.2 27.2 23.0 78 2.9 SE 28 44 15 24 1008.0 1007.9 8.2
16/01:30am 27.2 27.6 23.7 81 2.4 SE 28 39 15 21 1008.3 1008.2 8.2
16/01:00am 27.0 27.7 23.7 82 2.3 SE 26 35 14 19 1008.4 1008.3 8.2
16/12:30am 26.9 27.3 23.8 83 2.1 SE 28 41 15 22 1008.5 1008.4 8.2
16/12:00am 26.8 26.9 23.9 84 2.0 SE 30 41 16 22 1008.8 1008.7 8.2
 
Date/Time
EST
Temp
°C
App
Temp
°C
Dew
Point
°C
Rel
Hum
%
Delta-T
°C
Wind Press
QNH
hPa
Press
MSL
hPa
Rain since
9am
mm
Dir  Spd
km/h
Gust
km/h
Spd
kts
Gust
kts
15/11:30pm 26.9 27.6 24.9 89 1.4 SE 30 39 16 21 1009.2 1009.1 8.2
15/11:00pm 26.6 28.0 24.8 90 1.3 SE 26 39 14 21 1009.7 1009.6 8.2
15/10:30pm 25.0 26.3 23.4 91 1.1 ESE 22 39 12 21 1009.7 1009.6 8.2
15/10:00pm 24.7 25.8 23.7 94 0.7 ESE 24 37 13 20 1010.0 1009.9 7.0
15/09:30pm 25.4 28.3 23.8 91 1.1 E 15 24 8 13 1009.9 1009.8 1.2
15/09:00pm 25.2 25.4 23.4 90 1.2 ESE 28 46 15 25 1009.4 1009.3 1.0
15/08:54pm 25.1 24.9 22.8 87 1.6 SE 28 46 15 25 1009.3 1009.2 1.0
15/08:30pm 25.6 26.8 23.8 90 1.2 ESE 24 32 13 17 1009.2 1009.1 0.8
15/08:00pm 25.7 25.4 23.9 90 1.2 ESE 32 43 17 23 1009.3 1009.2 0.8
15/07:30pm 27.0 27.6 24.1 84 2.0 ESE 28 43 15 23 1008.8 1008.7 0.6
15/07:00pm 26.3 28.1 24.2 88 1.5 SE 22 35 12 19 1008.6 1008.5 0.6
15/06:30pm 26.1 27.7 23.8 87 1.6 ESE 22 32 12 17 1008.3 1008.2 0.6
15/06:00pm 27.1 28.0 24.0 83 2.1 SE 26 39 14 21 1008.1 1008.0 0.2
15/05:30pm 27.1 28.5 24.2 84 2.0 SE 24 35 13 19 1007.8 1007.7 0.2
15/05:00pm 26.8 27.3 23.9 84 2.0 SE 28 43 15 23 1007.6 1007.5 0.2
15/04:30pm 30.5 31.8 24.6 70 4.1 SE 26 37 14 20 1007.3 1007.2 0.0
15/04:00pm 30.0 30.4 24.4 72 3.9 SE 30 41 16 22 1007.2 1007.1 0.0
15/03:30pm 31.1 32.1 24.7 68 4.5 SE 28 37 15 20 1007.3 1007.2 0.0
15/03:00pm 30.2 31.9 25.3 75 3.5 SE 26 37 14 20 1007.4 1007.3 0.0
15/02:30pm 31.0 33.0 25.1 71 4.2 SE 24 35 13 19 1007.9 1007.8 0.0
15/02:00pm 31.2 32.9 25.3 71 4.2 SE 26 35 14 19 1008.3 1008.2 0.0
15/01:30pm 30.4 31.4 24.1 69 4.4 SE 26 33 14 18 1008.5 1008.4 0.0
15/01:00pm 31.1 31.9 24.5 68 4.6 SE 28 39 15 21 1008.6 1008.5 0.0
15/12:30pm 31.1 32.6 25.0 70 4.3 SE 26 33 14 18 1008.9 1008.8 0.0
15/12:00pm 30.6 31.5 24.0 68 4.6 SE 26 32 14 17 1009.4 1009.3 0.0
15/11:30am 30.6 32.2 24.5 70 4.3 SE 24 35 13 19 1010.1 1010.0 0.0
15/11:00am 30.9 32.8 25.0 71 4.2 SE 24 30 13 16 1010.3 1010.2 0.0
15/10:30am 30.3 31.7 24.2 70 4.2 SE 24 35 13 19 1010.3 1010.2 0.0
15/10:00am 29.0 32.0 25.6 82 2.4 ESE 20 35 11 19 1010.4 1010.3 0.0
15/09:30am 29.9 31.2 24.1 71 4.0 SE 24 33 13 18 1010.3 1010.2 0.0
15/09:00am 28.9 30.6 24.0 75 3.4 SE 22 32 12 17 1010.2 1010.1 11.4
15/08:30am 29.3 31.2 24.4 75 3.4 ESE 22 33 12 18 1010.1 1010.0 11.2
15/08:00am 28.9 31.3 24.2 76 3.3 ESE 19 28 10 15 1010.0 1009.9 11.2
15/07:30am 27.8 30.4 24.0 80 2.6 ESE 17 26 9 14 1010.0 1009.9 11.2
15/07:00am 27.0 30.2 24.3 85 1.9 ESE 15 24 8 13 1010.0 1009.9 11.2
15/06:30am 26.4 29.5 24.1 87 1.6 ESE 15 20 8 11 1009.6 1009.5 11.2
15/06:00am 26.1 28.8 24.1 89 1.4 ESE 17 22 9 12 1009.1 1009.0 11.2
15/05:30am 25.8 28.0 24.2 91 1.1 SE 20 30 11 16 1008.8 1008.7 11.2
15/05:00am 25.3 28.2 23.9 92 1.0 SE 15 20 8 11 1008.2 1008.1 11.2
15/04:30am 26.1 29.9 24.7 92 1.0 ESE 13 17 7 9 1008.0 1007.9 11.2
15/04:00am 25.9 28.9 24.7 93 0.8 SE 17 22 9 12 1007.8 1007.7 11.2
15/03:30am 25.4 29.0 24.4 94 0.7 SE 13 26 7 14 1007.9 1007.8 11.2
15/03:00am 25.0 26.4 23.6 92 1.0 ESE 22 33 12 18 1007.9 1007.8 8.8
15/02:30am 25.0 27.5 23.2 90 1.2 SE 15 20 8 11 1008.0 1007.9 2.6
15/02:00am 26.5 29.3 24.3 88 1.5 SE 17 24 9 13 1008.2 1008.1 2.6
15/01:30am 26.1 27.5 23.6 86 1.7 SE 22 33 12 18 1008.4 1008.3 2.6
15/01:00am 26.9 29.1 24.2 85 1.9 SE 20 28 11 15 1008.6 1008.5 2.2
15/12:30am 26.9 28.7 24.2 85 1.9 SE 22 32 12 17 1008.9 1008.8 2.2
15/12:00am 26.7 28.6 24.4 87 1.6 SE 22 30 12 16 1009.2 1009.1 2.2
 
Date/Time
EST
Temp
°C
App
Temp
°C
Dew
Point
°C
Rel
Hum
%
Delta-T
°C
Wind Press
QNH
hPa
Press
MSL
hPa
Rain since
9am
mm
Dir  Spd
km/h
Gust
km/h
Spd
kts
Gust
kts
14/11:30pm 26.8 29.4 24.6 88 1.5 ESE 19 28 10 15 1009.1 1009.0 2.2
14/11:00pm 27.1 29.7 24.6 86 1.7 SE 19 28 10 15 1009.4 1009.3 2.2
14/10:30pm 27.0 29.4 24.6 87 1.7 SE 20 30 11 16 1009.4 1009.3 2.2
14/10:00pm 26.7 29.2 24.7 89 1.4 SE 20 28 11 15 1009.2 1009.1 2.2

Other Formats:

Comma delimited format used in spreadsheet applications
http://www.bom.gov.au/fwo/IDQ60801/IDQ60801.94188.axf

JavaScript Object Notation format (JSON) in row-major order
http://www.bom.gov.au/fwo/IDQ60801/IDQ60801.94188.json